sensor_id;sensor_type;location;lat;lon;timestamp;P1;durP1;ratioP1;P2;durP2;ratioP2
43124;SDS011;49182;50.788;7.318;2022-07-22T00:00:53;14.65;;;6.80;;
43124;SDS011;49182;50.788;7.318;2022-07-22T00:03:21;11.07;;;6.28;;
43124;SDS011;49182;50.788;7.318;2022-07-22T00:05:47;11.45;;;6.18;;
43124;SDS011;49182;50.788;7.318;2022-07-22T00:08:14;12.77;;;6.28;;
43124;SDS011;49182;50.788;7.318;2022-07-22T00:10:41;11.57;;;6.38;;
43124;SDS011;49182;50.788;7.318;2022-07-22T00:13:08;10.57;;;6.32;;
43124;SDS011;49182;50.788;7.318;2022-07-22T00:15:34;10.45;;;6.60;;
43124;SDS011;49182;50.788;7.318;2022-07-22T00:18:02;13.50;;;6.97;;
43124;SDS011;49182;50.788;7.318;2022-07-22T00:20:30;14.98;;;7.07;;
43124;SDS011;49182;50.788;7.318;2022-07-22T00:22:56;12.70;;;6.80;;
43124;SDS011;49182;50.788;7.318;2022-07-22T00:25:23;11.48;;;6.47;;
43124;SDS011;49182;50.788;7.318;2022-07-22T00:27:50;15.15;;;6.82;;
43124;SDS011;49182;50.788;7.318;2022-07-22T00:30:16;13.35;;;7.45;;
43124;SDS011;49182;50.788;7.318;2022-07-22T00:32:43;11.77;;;6.55;;
43124;SDS011;49182;50.788;7.318;2022-07-22T00:35:10;12.30;;;7.15;;
43124;SDS011;49182;50.788;7.318;2022-07-22T00:37:37;12.15;;;6.45;;
43124;SDS011;49182;50.788;7.318;2022-07-22T00:40:05;12.48;;;6.47;;
43124;SDS011;49182;50.788;7.318;2022-07-22T00:42:32;16.05;;;7.70;;
43124;SDS011;49182;50.788;7.318;2022-07-22T00:45:01;16.08;;;7.72;;
43124;SDS011;49182;50.788;7.318;2022-07-22T00:47:28;13.10;;;6.93;;
43124;SDS011;49182;50.788;7.318;2022-07-22T00:49:55;12.88;;;8.05;;
43124;SDS011;49182;50.788;7.318;2022-07-22T00:52:22;15.85;;;8.35;;
43124;SDS011;49182;50.788;7.318;2022-07-22T00:54:51;16.05;;;7.63;;
43124;SDS011;49182;50.788;7.318;2022-07-22T00:57:18;13.90;;;7.63;;
43124;SDS011;49182;50.788;7.318;2022-07-22T00:59:45;13.00;;;7.45;;
43124;SDS011;49182;50.788;7.318;2022-07-22T01:02:11;15.98;;;6.88;;
43124;SDS011;49182;50.788;7.318;2022-07-22T01:04:38;15.00;;;7.28;;
43124;SDS011;49182;50.788;7.318;2022-07-22T01:07:06;15.25;;;8.20;;
43124;SDS011;49182;50.788;7.318;2022-07-22T01:09:32;13.45;;;7.95;;
43124;SDS011;49182;50.788;7.318;2022-07-22T01:12:01;15.07;;;8.35;;
43124;SDS011;49182;50.788;7.318;2022-07-22T01:14:30;17.63;;;8.85;;
43124;SDS011;49182;50.788;7.318;2022-07-22T01:16:56;15.30;;;7.70;;
43124;SDS011;49182;50.788;7.318;2022-07-22T01:19:23;16.15;;;8.07;;
43124;SDS011;49182;50.788;7.318;2022-07-22T01:21:51;15.32;;;7.25;;
43124;SDS011;49182;50.788;7.318;2022-07-22T01:24:18;14.10;;;8.05;;
43124;SDS011;49182;50.788;7.318;2022-07-22T01:26:45;16.70;;;8.07;;
43124;SDS011;49182;50.788;7.318;2022-07-22T01:29:11;15.32;;;9.18;;
43124;SDS011;49182;50.788;7.318;2022-07-22T01:31:38;15.48;;;8.77;;
43124;SDS011;49182;50.788;7.318;2022-07-22T01:34:05;14.95;;;8.63;;
43124;SDS011;49182;50.788;7.318;2022-07-22T01:36:34;15.48;;;9.38;;
43124;SDS011;49182;50.788;7.318;2022-07-22T01:39:03;13.85;;;8.73;;
43124;SDS011;49182;50.788;7.318;2022-07-22T01:41:30;16.83;;;9.48;;
43124;SDS011;49182;50.788;7.318;2022-07-22T01:43:57;14.90;;;8.45;;
43124;SDS011;49182;50.788;7.318;2022-07-22T01:46:24;17.65;;;9.02;;
43124;SDS011;49182;50.788;7.318;2022-07-22T01:48:51;17.23;;;9.32;;
43124;SDS011;49182;50.788;7.318;2022-07-22T01:51:18;19.33;;;9.65;;
43124;SDS011;49182;50.788;7.318;2022-07-22T01:53:48;18.98;;;9.25;;
43124;SDS011;49182;50.788;7.318;2022-07-22T01:56:16;17.55;;;8.32;;
43124;SDS011;49182;50.788;7.318;2022-07-22T01:58:47;17.20;;;8.38;;
43124;SDS011;49182;50.788;7.318;2022-07-22T02:01:16;19.08;;;8.38;;
43124;SDS011;49182;50.788;7.318;2022-07-22T02:03:43;20.92;;;8.88;;
43124;SDS011;49182;50.788;7.318;2022-07-22T02:06:10;17.48;;;9.48;;
43124;SDS011;49182;50.788;7.318;2022-07-22T02:08:36;15.13;;;9.13;;
43124;SDS011;49182;50.788;7.318;2022-07-22T02:11:14;19.20;;;8.63;;
43124;SDS011;49182;50.788;7.318;2022-07-22T02:13:55;19.75;;;9.00;;
43124;SDS011;49182;50.788;7.318;2022-07-22T02:16:24;15.25;;;7.80;;
43124;SDS011;49182;50.788;7.318;2022-07-22T02:18:51;15.40;;;8.30;;
43124;SDS011;49182;50.788;7.318;2022-07-22T02:21:19;14.93;;;7.22;;
43124;SDS011;49182;50.788;7.318;2022-07-22T02:23:46;14.75;;;8.30;;
43124;SDS011;49182;50.788;7.318;2022-07-22T02:26:14;13.02;;;8.07;;
43124;SDS011;49182;50.788;7.318;2022-07-22T02:28:40;15.70;;;7.53;;
43124;SDS011;49182;50.788;7.318;2022-07-22T02:31:09;15.68;;;8.23;;
43124;SDS011;49182;50.788;7.318;2022-07-22T02:33:37;15.75;;;7.95;;
43124;SDS011;49182;50.788;7.318;2022-07-22T02:36:04;13.82;;;7.82;;
43124;SDS011;49182;50.788;7.318;2022-07-22T02:38:33;13.45;;;6.90;;
43124;SDS011;49182;50.788;7.318;2022-07-22T02:41:00;11.30;;;6.78;;
43124;SDS011;49182;50.788;7.318;2022-07-22T02:43:28;13.40;;;6.80;;
43124;SDS011;49182;50.788;7.318;2022-07-22T02:45:55;13.38;;;6.43;;
43124;SDS011;49182;50.788;7.318;2022-07-22T02:48:23;12.93;;;7.28;;
43124;SDS011;49182;50.788;7.318;2022-07-22T02:50:50;13.70;;;6.00;;
43124;SDS011;49182;50.788;7.318;2022-07-22T02:55:49;10.70;;;6.65;;
43124;SDS011;49182;50.788;7.318;2022-07-22T02:58:16;13.95;;;6.82;;
43124;SDS011;49182;50.788;7.318;2022-07-22T03:00:44;16.20;;;6.30;;
43124;SDS011;49182;50.788;7.318;2022-07-22T03:03:11;10.13;;;5.93;;
43124;SDS011;49182;50.788;7.318;2022-07-22T03:05:41;10.20;;;5.85;;
43124;SDS011;49182;50.788;7.318;2022-07-22T03:08:22;11.07;;;5.97;;
43124;SDS011;49182;50.788;7.318;2022-07-22T03:10:49;11.85;;;6.57;;
43124;SDS011;49182;50.788;7.318;2022-07-22T03:13:16;13.13;;;6.53;;
43124;SDS011;49182;50.788;7.318;2022-07-22T03:15:43;11.27;;;6.22;;
43124;SDS011;49182;50.788;7.318;2022-07-22T03:18:11;12.13;;;5.55;;
43124;SDS011;49182;50.788;7.318;2022-07-22T03:20:41;11.82;;;5.45;;
43124;SDS011;49182;50.788;7.318;2022-07-22T03:23:07;11.50;;;5.70;;
43124;SDS011;49182;50.788;7.318;2022-07-22T03:25:34;12.50;;;6.10;;
43124;SDS011;49182;50.788;7.318;2022-07-22T03:28:02;10.88;;;5.90;;
43124;SDS011;49182;50.788;7.318;2022-07-22T03:30:28;13.55;;;5.85;;
43124;SDS011;49182;50.788;7.318;2022-07-22T03:32:56;15.07;;;6.45;;
43124;SDS011;49182;50.788;7.318;2022-07-22T03:35:26;11.20;;;5.63;;
43124;SDS011;49182;50.788;7.318;2022-07-22T03:37:55;13.10;;;5.93;;
43124;SDS011;49182;50.788;7.318;2022-07-22T03:40:24;13.02;;;6.00;;
43124;SDS011;49182;50.788;7.318;2022-07-22T03:42:51;10.35;;;5.18;;
43124;SDS011;49182;50.788;7.318;2022-07-22T03:45:18;11.30;;;5.68;;
43124;SDS011;49182;50.788;7.318;2022-07-22T03:47:47;14.68;;;6.82;;
43124;SDS011;49182;50.788;7.318;2022-07-22T03:50:15;11.13;;;6.10;;
43124;SDS011;49182;50.788;7.318;2022-07-22T03:52:43;10.68;;;6.30;;
43124;SDS011;49182;50.788;7.318;2022-07-22T03:55:11;17.27;;;5.57;;
43124;SDS011;49182;50.788;7.318;2022-07-22T03:57:40;14.23;;;5.65;;
43124;SDS011;49182;50.788;7.318;2022-07-22T04:00:15;10.50;;;6.00;;
43124;SDS011;49182;50.788;7.318;2022-07-22T04:02:45;13.38;;;5.78;;
43124;SDS011;49182;50.788;7.318;2022-07-22T04:05:17;10.63;;;5.03;;
43124;SDS011;49182;50.788;7.318;2022-07-22T04:07:44;11.52;;;5.65;;
43124;SDS011;49182;50.788;7.318;2022-07-22T04:10:13;11.35;;;5.15;;
43124;SDS011;49182;50.788;7.318;2022-07-22T04:12:43;10.73;;;5.95;;
43124;SDS011;49182;50.788;7.318;2022-07-22T04:15:18;9.57;;;5.60;;
43124;SDS011;49182;50.788;7.318;2022-07-22T04:17:45;10.80;;;5.05;;
43124;SDS011;49182;50.788;7.318;2022-07-22T04:20:12;11.85;;;5.53;;
43124;SDS011;49182;50.788;7.318;2022-07-22T04:22:58;16.08;;;5.47;;
43124;SDS011;49182;50.788;7.318;2022-07-22T04:25:27;12.15;;;5.60;;
43124;SDS011;49182;50.788;7.318;2022-07-22T04:27:54;10.80;;;5.57;;
43124;SDS011;49182;50.788;7.318;2022-07-22T04:30:21;11.35;;;5.47;;
43124;SDS011;49182;50.788;7.318;2022-07-22T04:32:50;11.38;;;5.78;;
43124;SDS011;49182;50.788;7.318;2022-07-22T04:35:16;9.98;;;5.25;;
43124;SDS011;49182;50.788;7.318;2022-07-22T04:37:57;10.23;;;5.53;;
43124;SDS011;49182;50.788;7.318;2022-07-22T04:40:24;13.60;;;5.93;;
43124;SDS011;49182;50.788;7.318;2022-07-22T04:42:53;11.65;;;5.20;;
43124;SDS011;49182;50.788;7.318;2022-07-22T04:45:20;12.73;;;5.53;;
43124;SDS011;49182;50.788;7.318;2022-07-22T04:47:47;12.35;;;5.45;;
43124;SDS011;49182;50.788;7.318;2022-07-22T04:50:13;11.45;;;5.63;;
43124;SDS011;49182;50.788;7.318;2022-07-22T04:52:40;8.32;;;5.05;;
43124;SDS011;49182;50.788;7.318;2022-07-22T04:55:14;11.43;;;5.57;;
43124;SDS011;49182;50.788;7.318;2022-07-22T04:57:41;13.35;;;5.72;;
43124;SDS011;49182;50.788;7.318;2022-07-22T05:00:10;12.20;;;5.72;;
43124;SDS011;49182;50.788;7.318;2022-07-22T05:02:46;16.02;;;6.50;;
43124;SDS011;49182;50.788;7.318;2022-07-22T05:05:14;11.07;;;5.95;;
43124;SDS011;49182;50.788;7.318;2022-07-22T05:07:41;12.98;;;7.05;;
43124;SDS011;49182;50.788;7.318;2022-07-22T05:10:08;12.63;;;6.47;;
43124;SDS011;49182;50.788;7.318;2022-07-22T05:12:35;13.55;;;7.05;;
43124;SDS011;49182;50.788;7.318;2022-07-22T05:15:02;14.73;;;6.05;;
43124;SDS011;49182;50.788;7.318;2022-07-22T05:17:31;13.40;;;7.72;;
43124;SDS011;49182;50.788;7.318;2022-07-22T05:20:06;15.15;;;7.65;;
43124;SDS011;49182;50.788;7.318;2022-07-22T05:22:33;14.23;;;8.00;;
43124;SDS011;49182;50.788;7.318;2022-07-22T05:25:06;13.93;;;7.80;;
43124;SDS011;49182;50.788;7.318;2022-07-22T05:27:34;16.23;;;8.60;;
43124;SDS011;49182;50.788;7.318;2022-07-22T05:30:01;13.90;;;7.63;;
43124;SDS011;49182;50.788;7.318;2022-07-22T05:32:31;14.63;;;8.50;;
43124;SDS011;49182;50.788;7.318;2022-07-22T05:35:01;15.80;;;8.07;;
43124;SDS011;49182;50.788;7.318;2022-07-22T05:37:27;15.45;;;7.13;;
43124;SDS011;49182;50.788;7.318;2022-07-22T05:39:55;13.73;;;7.47;;
43124;SDS011;49182;50.788;7.318;2022-07-22T05:42:21;13.35;;;7.93;;
43124;SDS011;49182;50.788;7.318;2022-07-22T05:44:49;18.02;;;7.72;;
43124;SDS011;49182;50.788;7.318;2022-07-22T05:47:15;15.48;;;7.55;;
43124;SDS011;49182;50.788;7.318;2022-07-22T05:49:44;16.88;;;7.18;;
43124;SDS011;49182;50.788;7.318;2022-07-22T05:52:11;14.80;;;7.20;;
43124;SDS011;49182;50.788;7.318;2022-07-22T05:54:40;15.60;;;7.20;;
43124;SDS011;49182;50.788;7.318;2022-07-22T05:57:07;19.60;;;7.43;;
43124;SDS011;49182;50.788;7.318;2022-07-22T05:59:33;15.43;;;6.55;;
43124;SDS011;49182;50.788;7.318;2022-07-22T06:02:00;13.55;;;6.82;;
43124;SDS011;49182;50.788;7.318;2022-07-22T06:04:36;19.58;;;7.35;;
43124;SDS011;49182;50.788;7.318;2022-07-22T06:07:05;13.27;;;6.97;;
43124;SDS011;49182;50.788;7.318;2022-07-22T06:09:32;14.73;;;7.65;;
43124;SDS011;49182;50.788;7.318;2022-07-22T06:11:59;13.95;;;6.90;;
43124;SDS011;49182;50.788;7.318;2022-07-22T06:14:26;13.13;;;7.85;;
43124;SDS011;49182;50.788;7.318;2022-07-22T06:16:52;15.43;;;7.28;;
43124;SDS011;49182;50.788;7.318;2022-07-22T06:19:20;14.98;;;7.60;;
43124;SDS011;49182;50.788;7.318;2022-07-22T06:21:47;15.02;;;7.32;;
43124;SDS011;49182;50.788;7.318;2022-07-22T06:24:15;16.85;;;8.38;;
43124;SDS011;49182;50.788;7.318;2022-07-22T06:26:42;14.90;;;7.32;;
43124;SDS011;49182;50.788;7.318;2022-07-22T06:29:09;15.55;;;8.25;;
43124;SDS011;49182;50.788;7.318;2022-07-22T06:31:36;12.48;;;7.68;;
43124;SDS011;49182;50.788;7.318;2022-07-22T06:34:02;15.45;;;8.40;;
43124;SDS011;49182;50.788;7.318;2022-07-22T06:36:38;16.08;;;7.65;;
43124;SDS011;49182;50.788;7.318;2022-07-22T06:39:05;18.13;;;7.93;;
43124;SDS011;49182;50.788;7.318;2022-07-22T06:41:52;14.68;;;7.78;;
43124;SDS011;49182;50.788;7.318;2022-07-22T06:44:39;16.83;;;8.70;;
43124;SDS011;49182;50.788;7.318;2022-07-22T06:47:11;14.85;;;7.45;;
43124;SDS011;49182;50.788;7.318;2022-07-22T06:49:38;13.23;;;8.38;;
43124;SDS011;49182;50.788;7.318;2022-07-22T06:52:04;14.18;;;7.82;;
43124;SDS011;49182;50.788;7.318;2022-07-22T06:54:32;15.65;;;7.97;;
43124;SDS011;49182;50.788;7.318;2022-07-22T06:57:02;16.15;;;8.18;;
43124;SDS011;49182;50.788;7.318;2022-07-22T06:59:32;13.55;;;8.48;;
43124;SDS011;49182;50.788;7.318;2022-07-22T07:02:04;13.73;;;8.73;;
43124;SDS011;49182;50.788;7.318;2022-07-22T07:04:36;14.65;;;8.65;;
43124;SDS011;49182;50.788;7.318;2022-07-22T07:07:03;13.98;;;8.23;;
43124;SDS011;49182;50.788;7.318;2022-07-22T07:09:30;14.48;;;8.32;;
43124;SDS011;49182;50.788;7.318;2022-07-22T07:12:07;15.50;;;8.30;;
43124;SDS011;49182;50.788;7.318;2022-07-22T07:14:53;16.80;;;7.93;;
43124;SDS011;49182;50.788;7.318;2022-07-22T07:17:40;13.95;;;8.02;;
43124;SDS011;49182;50.788;7.318;2022-07-22T07:20:09;11.68;;;7.07;;
43124;SDS011;49182;50.788;7.318;2022-07-22T07:22:37;11.35;;;6.40;;
43124;SDS011;49182;50.788;7.318;2022-07-22T07:25:03;10.20;;;5.80;;
43124;SDS011;49182;50.788;7.318;2022-07-22T07:27:52;10.48;;;6.40;;
43124;SDS011;49182;50.788;7.318;2022-07-22T07:30:34;12.57;;;6.18;;
43124;SDS011;49182;50.788;7.318;2022-07-22T07:33:01;9.55;;;6.03;;
43124;SDS011;49182;50.788;7.318;2022-07-22T07:35:28;11.07;;;6.43;;
43124;SDS011;49182;50.788;7.318;2022-07-22T07:37:58;12.15;;;6.20;;
43124;SDS011;49182;50.788;7.318;2022-07-22T07:40:25;11.25;;;6.75;;
43124;SDS011;49182;50.788;7.318;2022-07-22T07:42:54;8.38;;;5.68;;
43124;SDS011;49182;50.788;7.318;2022-07-22T07:45:29;10.95;;;6.13;;
43124;SDS011;49182;50.788;7.318;2022-07-22T07:47:56;10.00;;;6.43;;
43124;SDS011;49182;50.788;7.318;2022-07-22T07:50:23;11.40;;;6.50;;
43124;SDS011;49182;50.788;7.318;2022-07-22T07:52:50;12.75;;;6.57;;
43124;SDS011;49182;50.788;7.318;2022-07-22T07:55:20;12.55;;;6.32;;
43124;SDS011;49182;50.788;7.318;2022-07-22T07:57:47;14.85;;;6.43;;
43124;SDS011;49182;50.788;7.318;2022-07-22T08:00:17;10.57;;;6.35;;
43124;SDS011;49182;50.788;7.318;2022-07-22T08:02:47;11.95;;;6.63;;
43124;SDS011;49182;50.788;7.318;2022-07-22T08:05:15;10.77;;;6.50;;
43124;SDS011;49182;50.788;7.318;2022-07-22T08:07:42;9.77;;;5.50;;
43124;SDS011;49182;50.788;7.318;2022-07-22T08:10:09;11.50;;;5.78;;
43124;SDS011;49182;50.788;7.318;2022-07-22T08:13:12;8.38;;;5.63;;
43124;SDS011;49182;50.788;7.318;2022-07-22T08:15:58;10.52;;;5.80;;
43124;SDS011;49182;50.788;7.318;2022-07-22T08:18:26;9.55;;;5.90;;
43124;SDS011;49182;50.788;7.318;2022-07-22T08:20:54;7.93;;;5.00;;
43124;SDS011;49182;50.788;7.318;2022-07-22T08:23:33;9.02;;;5.60;;
43124;SDS011;49182;50.788;7.318;2022-07-22T08:26:01;7.82;;;5.20;;
43124;SDS011;49182;50.788;7.318;2022-07-22T08:28:28;10.30;;;5.88;;
43124;SDS011;49182;50.788;7.318;2022-07-22T08:30:55;10.10;;;5.65;;
43124;SDS011;49182;50.788;7.318;2022-07-22T08:33:23;10.13;;;5.60;;
43124;SDS011;49182;50.788;7.318;2022-07-22T08:35:50;9.13;;;5.07;;
43124;SDS011;49182;50.788;7.318;2022-07-22T08:38:17;8.60;;;5.18;;
43124;SDS011;49182;50.788;7.318;2022-07-22T08:40:44;6.90;;;4.55;;
43124;SDS011;49182;50.788;7.318;2022-07-22T08:43:11;11.70;;;6.18;;
43124;SDS011;49182;50.788;7.318;2022-07-22T08:45:39;9.70;;;5.43;;
43124;SDS011;49182;50.788;7.318;2022-07-22T08:48:07;10.45;;;5.72;;
43124;SDS011;49182;50.788;7.318;2022-07-22T08:50:50;10.43;;;5.60;;
43124;SDS011;49182;50.788;7.318;2022-07-22T08:56:02;8.80;;;5.50;;
43124;SDS011;49182;50.788;7.318;2022-07-22T08:58:29;9.20;;;5.85;;
43124;SDS011;49182;50.788;7.318;2022-07-22T09:01:06;9.43;;;5.82;;
43124;SDS011;49182;50.788;7.318;2022-07-22T09:03:43;10.68;;;6.00;;
43124;SDS011;49182;50.788;7.318;2022-07-22T09:06:14;9.95;;;5.57;;
43124;SDS011;49182;50.788;7.318;2022-07-22T09:08:51;10.38;;;6.10;;
43124;SDS011;49182;50.788;7.318;2022-07-22T09:11:40;15.93;;;5.85;;
43124;SDS011;49182;50.788;7.318;2022-07-22T09:14:09;7.97;;;4.90;;
43124;SDS011;49182;50.788;7.318;2022-07-22T09:16:44;10.45;;;5.22;;
43124;SDS011;49182;50.788;7.318;2022-07-22T09:19:30;9.82;;;5.53;;
43124;SDS011;49182;50.788;7.318;2022-07-22T09:22:20;9.38;;;5.03;;
43124;SDS011;49182;50.788;7.318;2022-07-22T09:25:16;8.60;;;4.95;;
43124;SDS011;49182;50.788;7.318;2022-07-22T09:28:13;8.68;;;4.95;;
43124;SDS011;49182;50.788;7.318;2022-07-22T09:31:22;10.63;;;4.88;;
43124;SDS011;49182;50.788;7.318;2022-07-22T09:34:02;6.82;;;4.05;;
43124;SDS011;49182;50.788;7.318;2022-07-22T09:36:30;8.25;;;4.40;;
43124;SDS011;49182;50.788;7.318;2022-07-22T09:38:58;7.10;;;4.57;;
43124;SDS011;49182;50.788;7.318;2022-07-22T09:41:27;8.80;;;4.05;;
43124;SDS011;49182;50.788;7.318;2022-07-22T09:43:54;9.57;;;4.80;;
43124;SDS011;49182;50.788;7.318;2022-07-22T09:46:32;7.75;;;4.60;;
43124;SDS011;49182;50.788;7.318;2022-07-22T09:49:31;6.75;;;3.90;;
43124;SDS011;49182;50.788;7.318;2022-07-22T09:52:17;9.63;;;4.10;;
43124;SDS011;49182;50.788;7.318;2022-07-22T09:55:14;6.32;;;3.67;;
43124;SDS011;49182;50.788;7.318;2022-07-22T09:57:42;6.38;;;3.58;;
43124;SDS011;49182;50.788;7.318;2022-07-22T10:00:10;10.20;;;4.43;;
43124;SDS011;49182;50.788;7.318;2022-07-22T10:02:45;5.55;;;3.55;;
43124;SDS011;49182;50.788;7.318;2022-07-22T10:05:15;5.70;;;3.45;;
43124;SDS011;49182;50.788;7.318;2022-07-22T10:07:44;7.95;;;4.47;;
43124;SDS011;49182;50.788;7.318;2022-07-22T10:10:14;8.77;;;4.20;;
43124;SDS011;49182;50.788;7.318;2022-07-22T10:12:42;7.43;;;4.05;;
43124;SDS011;49182;50.788;7.318;2022-07-22T10:15:11;6.28;;;3.78;;
43124;SDS011;49182;50.788;7.318;2022-07-22T10:17:39;9.30;;;4.45;;
43124;SDS011;49182;50.788;7.318;2022-07-22T10:20:09;5.80;;;4.13;;
43124;SDS011;49182;50.788;7.318;2022-07-22T10:22:49;7.30;;;3.90;;
43124;SDS011;49182;50.788;7.318;2022-07-22T10:25:27;6.10;;;3.90;;
43124;SDS011;49182;50.788;7.318;2022-07-22T10:27:57;6.13;;;3.75;;
43124;SDS011;49182;50.788;7.318;2022-07-22T10:30:27;6.47;;;4.15;;
43124;SDS011;49182;50.788;7.318;2022-07-22T10:33:05;7.00;;;3.97;;
43124;SDS011;49182;50.788;7.318;2022-07-22T10:38:06;6.90;;;4.03;;
43124;SDS011;49182;50.788;7.318;2022-07-22T10:40:48;7.72;;;4.13;;
43124;SDS011;49182;50.788;7.318;2022-07-22T10:43:17;5.80;;;3.85;;
43124;SDS011;49182;50.788;7.318;2022-07-22T10:45:46;6.90;;;3.53;;
43124;SDS011;49182;50.788;7.318;2022-07-22T10:48:15;8.40;;;3.85;;
43124;SDS011;49182;50.788;7.318;2022-07-22T10:50:48;5.43;;;3.70;;
43124;SDS011;49182;50.788;7.318;2022-07-22T10:53:17;6.20;;;3.58;;
43124;SDS011;49182;50.788;7.318;2022-07-22T10:55:59;6.07;;;3.95;;
43124;SDS011;49182;50.788;7.318;2022-07-22T10:58:40;6.57;;;3.83;;
43124;SDS011;49182;50.788;7.318;2022-07-22T11:01:15;9.27;;;3.88;;
43124;SDS011;49182;50.788;7.318;2022-07-22T11:03:44;5.88;;;3.88;;
43124;SDS011;49182;50.788;7.318;2022-07-22T11:06:18;5.82;;;3.60;;
43124;SDS011;49182;50.788;7.318;2022-07-22T11:08:47;6.47;;;3.90;;
43124;SDS011;49182;50.788;7.318;2022-07-22T11:11:17;6.10;;;3.60;;
43124;SDS011;49182;50.788;7.318;2022-07-22T11:13:45;6.20;;;3.70;;
43124;SDS011;49182;50.788;7.318;2022-07-22T11:16:16;7.25;;;3.60;;
43124;SDS011;49182;50.788;7.318;2022-07-22T11:18:44;5.40;;;3.55;;
43124;SDS011;49182;50.788;7.318;2022-07-22T11:21:16;7.55;;;4.57;;
43124;SDS011;49182;50.788;7.318;2022-07-22T11:23:43;7.05;;;4.20;;
43124;SDS011;49182;50.788;7.318;2022-07-22T11:26:12;7.82;;;3.58;;
43124;SDS011;49182;50.788;7.318;2022-07-22T11:28:42;5.65;;;3.60;;
43124;SDS011;49182;50.788;7.318;2022-07-22T11:31:10;6.70;;;3.88;;
43124;SDS011;49182;50.788;7.318;2022-07-22T11:33:40;6.63;;;4.20;;
43124;SDS011;49182;50.788;7.318;2022-07-22T11:36:07;6.25;;;3.92;;
43124;SDS011;49182;50.788;7.318;2022-07-22T11:38:45;7.78;;;4.32;;
43124;SDS011;49182;50.788;7.318;2022-07-22T11:41:18;6.93;;;3.60;;
43124;SDS011;49182;50.788;7.318;2022-07-22T11:43:47;10.35;;;4.40;;
43124;SDS011;49182;50.788;7.318;2022-07-22T11:46:16;8.35;;;4.95;;
43124;SDS011;49182;50.788;7.318;2022-07-22T11:48:44;7.05;;;4.05;;
43124;SDS011;49182;50.788;7.318;2022-07-22T11:51:11;6.80;;;4.10;;
43124;SDS011;49182;50.788;7.318;2022-07-22T11:53:46;11.43;;;4.25;;
43124;SDS011;49182;50.788;7.318;2022-07-22T11:56:13;6.70;;;4.32;;
43124;SDS011;49182;50.788;7.318;2022-07-22T11:58:41;6.72;;;4.05;;
43124;SDS011;49182;50.788;7.318;2022-07-22T12:01:12;5.70;;;3.60;;
43124;SDS011;49182;50.788;7.318;2022-07-22T12:03:41;7.30;;;4.13;;
43124;SDS011;49182;50.788;7.318;2022-07-22T12:06:12;6.05;;;4.00;;
43124;SDS011;49182;50.788;7.318;2022-07-22T12:08:42;5.88;;;3.85;;
43124;SDS011;49182;50.788;7.318;2022-07-22T12:13:40;7.63;;;4.18;;
43124;SDS011;49182;50.788;7.318;2022-07-22T12:16:25;7.75;;;4.20;;
43124;SDS011;49182;50.788;7.318;2022-07-22T12:18:54;6.05;;;3.83;;
43124;SDS011;49182;50.788;7.318;2022-07-22T12:21:23;6.72;;;4.15;;
43124;SDS011;49182;50.788;7.318;2022-07-22T12:23:52;6.82;;;4.03;;
43124;SDS011;49182;50.788;7.318;2022-07-22T12:29:22;7.60;;;5.35;;
43124;SDS011;49182;50.788;7.318;2022-07-22T12:31:52;12.80;;;7.35;;
43124;SDS011;49182;50.788;7.318;2022-07-22T12:34:31;10.60;;;6.97;;
43124;SDS011;49182;50.788;7.318;2022-07-22T12:37:00;9.65;;;6.15;;
43124;SDS011;49182;50.788;7.318;2022-07-22T12:39:37;10.85;;;6.85;;
43124;SDS011;49182;50.788;7.318;2022-07-22T12:42:14;9.02;;;6.18;;
43124;SDS011;49182;50.788;7.318;2022-07-22T12:44:50;9.30;;;6.57;;
43124;SDS011;49182;50.788;7.318;2022-07-22T12:47:23;10.75;;;6.75;;
43124;SDS011;49182;50.788;7.318;2022-07-22T12:50:24;8.30;;;5.63;;
43124;SDS011;49182;50.788;7.318;2022-07-22T12:52:53;9.27;;;5.75;;
43124;SDS011;49182;50.788;7.318;2022-07-22T12:55:43;7.75;;;5.10;;
43124;SDS011;49182;50.788;7.318;2022-07-22T12:58:12;6.90;;;4.80;;
43124;SDS011;49182;50.788;7.318;2022-07-22T13:00:42;9.18;;;5.07;;
43124;SDS011;49182;50.788;7.318;2022-07-22T13:03:11;6.90;;;4.30;;
43124;SDS011;49182;50.788;7.318;2022-07-22T13:05:38;8.55;;;4.22;;
43124;SDS011;49182;50.788;7.318;2022-07-22T13:08:04;6.35;;;4.45;;
43124;SDS011;49182;50.788;7.318;2022-07-22T13:10:35;6.93;;;4.22;;
43124;SDS011;49182;50.788;7.318;2022-07-22T13:13:04;9.70;;;4.63;;
43124;SDS011;49182;50.788;7.318;2022-07-22T13:15:31;9.23;;;4.45;;
43124;SDS011;49182;50.788;7.318;2022-07-22T13:17:57;9.27;;;4.63;;
43124;SDS011;49182;50.788;7.318;2022-07-22T13:20:25;8.57;;;4.45;;
43124;SDS011;49182;50.788;7.318;2022-07-22T13:22:52;7.45;;;5.07;;
43124;SDS011;49182;50.788;7.318;2022-07-22T13:25:19;8.63;;;4.55;;
43124;SDS011;49182;50.788;7.318;2022-07-22T13:27:45;8.25;;;5.50;;
43124;SDS011;49182;50.788;7.318;2022-07-22T13:30:12;7.25;;;4.57;;
43124;SDS011;49182;50.788;7.318;2022-07-22T13:32:39;7.38;;;4.97;;
43124;SDS011;49182;50.788;7.318;2022-07-22T13:35:14;8.68;;;5.22;;
43124;SDS011;49182;50.788;7.318;2022-07-22T13:37:42;9.70;;;5.97;;
43124;SDS011;49182;50.788;7.318;2022-07-22T13:40:09;8.25;;;4.18;;
43124;SDS011;49182;50.788;7.318;2022-07-22T13:42:36;6.80;;;4.72;;
43124;SDS011;49182;50.788;7.318;2022-07-22T13:45:04;6.95;;;4.43;;
43124;SDS011;49182;50.788;7.318;2022-07-22T13:47:35;6.32;;;4.45;;
43124;SDS011;49182;50.788;7.318;2022-07-22T13:50:02;6.95;;;4.60;;
43124;SDS011;49182;50.788;7.318;2022-07-22T13:52:29;8.23;;;5.10;;
43124;SDS011;49182;50.788;7.318;2022-07-22T13:54:57;6.30;;;4.50;;
43124;SDS011;49182;50.788;7.318;2022-07-22T13:57:23;6.82;;;4.72;;
43124;SDS011;49182;50.788;7.318;2022-07-22T13:59:50;8.43;;;5.32;;
43124;SDS011;49182;50.788;7.318;2022-07-22T14:02:17;7.30;;;4.93;;
43124;SDS011;49182;50.788;7.318;2022-07-22T14:04:44;6.80;;;4.75;;
43124;SDS011;49182;50.788;7.318;2022-07-22T14:07:11;8.30;;;4.47;;
43124;SDS011;49182;50.788;7.318;2022-07-22T14:09:38;6.15;;;4.55;;
43124;SDS011;49182;50.788;7.318;2022-07-22T14:12:07;7.13;;;4.72;;
43124;SDS011;49182;50.788;7.318;2022-07-22T14:14:34;8.15;;;5.05;;
43124;SDS011;49182;50.788;7.318;2022-07-22T14:17:01;5.90;;;3.88;;
43124;SDS011;49182;50.788;7.318;2022-07-22T14:19:28;6.00;;;3.83;;
43124;SDS011;49182;50.788;7.318;2022-07-22T14:21:55;5.78;;;3.95;;
43124;SDS011;49182;50.788;7.318;2022-07-22T14:24:22;6.93;;;4.07;;
43124;SDS011;49182;50.788;7.318;2022-07-22T14:26:48;6.28;;;4.32;;
43124;SDS011;49182;50.788;7.318;2022-07-22T14:29:16;7.68;;;4.10;;
43124;SDS011;49182;50.788;7.318;2022-07-22T14:31:43;6.97;;;3.95;;
43124;SDS011;49182;50.788;7.318;2022-07-22T14:34:10;6.50;;;3.90;;
43124;SDS011;49182;50.788;7.318;2022-07-22T14:36:37;5.85;;;4.10;;
43124;SDS011;49182;50.788;7.318;2022-07-22T14:39:03;6.97;;;4.13;;
43124;SDS011;49182;50.788;7.318;2022-07-22T14:41:30;6.95;;;4.70;;
43124;SDS011;49182;50.788;7.318;2022-07-22T14:43:57;6.07;;;4.00;;
43124;SDS011;49182;50.788;7.318;2022-07-22T14:46:25;6.30;;;4.43;;
43124;SDS011;49182;50.788;7.318;2022-07-22T14:48:52;7.32;;;4.40;;
43124;SDS011;49182;50.788;7.318;2022-07-22T14:51:19;5.88;;;3.85;;
43124;SDS011;49182;50.788;7.318;2022-07-22T14:53:46;6.32;;;3.97;;
43124;SDS011;49182;50.788;7.318;2022-07-22T14:56:13;5.75;;;4.10;;
43124;SDS011;49182;50.788;7.318;2022-07-22T14:58:40;9.38;;;4.18;;
43124;SDS011;49182;50.788;7.318;2022-07-22T15:01:07;5.88;;;3.80;;
43124;SDS011;49182;50.788;7.318;2022-07-22T15:03:35;6.55;;;4.20;;
43124;SDS011;49182;50.788;7.318;2022-07-22T15:06:01;5.43;;;3.55;;
43124;SDS011;49182;50.788;7.318;2022-07-22T15:08:28;7.35;;;3.88;;
43124;SDS011;49182;50.788;7.318;2022-07-22T15:10:55;7.57;;;4.28;;